createdAt,value
2018-04-30T00:00:39.389Z,0.00
2018-04-30T00:01:39.187Z,0.00
2018-04-30T00:02:39.101Z,0.00
2018-04-30T00:03:39.011Z,0.00
2018-04-30T00:04:38.954Z,0.00
2018-04-30T00:05:38.834Z,0.00
2018-04-30T00:06:38.750Z,0.00
2018-04-30T00:07:38.760Z,0.00
2018-04-30T00:08:38.577Z,0.00
2018-04-30T00:09:38.515Z,0.00
2018-04-30T00:10:38.405Z,0.00
2018-04-30T00:11:38.314Z,0.00
2018-04-30T00:12:38.223Z,0.00
2018-04-30T00:13:38.137Z,0.00
2018-04-30T00:14:38.145Z,0.00
2018-04-30T00:15:37.990Z,0.00
2018-04-30T00:16:37.868Z,0.00
2018-04-30T00:17:37.783Z,0.00
2018-04-30T00:18:37.695Z,0.00
2018-04-30T00:19:37.609Z,0.00
2018-04-30T00:20:37.568Z,0.00
2018-04-30T00:21:37.539Z,0.00
2018-04-30T00:22:37.345Z,0.00
2018-04-30T00:23:37.254Z,0.00
2018-04-30T00:24:37.169Z,0.00
2018-04-30T00:25:37.113Z,0.00
2018-04-30T00:26:36.993Z,0.00
2018-04-30T00:27:37.029Z,0.00
2018-04-30T00:28:36.816Z,0.00
2018-04-30T00:29:36.727Z,0.00
2018-04-30T00:30:36.669Z,0.00
2018-04-30T00:31:36.550Z,0.00
2018-04-30T00:32:36.464Z,0.00
2018-04-30T00:33:36.458Z,0.00
2018-04-30T00:34:36.288Z,0.00
2018-04-30T00:35:36.228Z,0.00
2018-04-30T00:36:36.108Z,0.00
2018-04-30T00:37:36.027Z,0.00
2018-04-30T00:38:35.931Z,0.00
2018-04-30T00:39:35.848Z,0.00
2018-04-30T00:40:35.787Z,0.00
2018-04-30T00:41:35.671Z,0.00
2018-04-30T00:42:35.582Z,0.00
2018-04-30T00:43:35.495Z,0.00
2018-04-30T00:44:35.405Z,0.00
2018-04-30T00:45:35.350Z,0.00
2018-04-30T00:46:35.230Z,0.00
2018-04-30T00:47:35.142Z,0.00
2018-04-30T00:48:35.053Z,0.00
2018-04-30T00:49:34.966Z,0.00
2018-04-30T00:50:34.911Z,0.00
2018-04-30T00:51:34.788Z,0.00
2018-04-30T00:52:34.708Z,0.00
2018-04-30T00:53:34.630Z,0.00
2018-04-30T00:54:34.527Z,0.00
2018-04-30T00:55:34.466Z,0.00
2018-04-30T00:56:34.348Z,0.00
2018-04-30T00:57:34.260Z,0.00
2018-04-30T00:58:34.176Z,0.00
2018-04-30T00:59:34.084Z,0.00
2018-04-30T01:00:34.027Z,0.00
2018-04-30T01:01:33.908Z,0.00
2018-04-30T01:02:33.820Z,0.00
2018-04-30T01:03:33.748Z,0.00
2018-04-30T01:04:33.643Z,0.00
2018-04-30T01:05:33.584Z,0.00
2018-04-30T01:06:33.466Z,0.00
2018-04-30T01:07:33.374Z,0.00
2018-04-30T01:08:33.287Z,0.00
2018-04-30T01:09:33.199Z,0.00
2018-04-30T01:10:33.142Z,0.00
2018-04-30T01:11:33.025Z,0.00
2018-04-30T01:12:32.935Z,0.00
2018-04-30T01:13:32.847Z,0.00
2018-04-30T01:14:32.779Z,0.00
2018-04-30T01:15:32.700Z,0.00
2018-04-30T01:16:32.586Z,0.00
2018-04-30T01:17:32.493Z,0.00
2018-04-30T01:18:32.404Z,0.00
2018-04-30T01:19:32.316Z,0.00
2018-04-30T01:20:32.257Z,0.00
2018-04-30T01:21:32.138Z,0.00
2018-04-30T01:22:32.048Z,0.00
2018-04-30T01:23:31.967Z,0.00
2018-04-30T01:24:31.869Z,0.00
2018-04-30T01:25:31.784Z,0.00
2018-04-30T01:26:31.726Z,0.00
2018-04-30T01:27:31.606Z,0.00
2018-04-30T01:28:31.515Z,0.00
2018-04-30T01:29:31.430Z,0.00
2018-04-30T01:30:31.341Z,0.00
2018-04-30T01:31:31.282Z,0.00
2018-04-30T01:32:31.163Z,0.00
2018-04-30T01:33:31.072Z,0.00
2018-04-30T01:34:30.987Z,0.00
2018-04-30T01:35:30.899Z,0.00
2018-04-30T01:36:30.848Z,0.00
2018-04-30T01:37:30.719Z,0.00
2018-04-30T01:38:30.633Z,0.00
2018-04-30T01:39:30.541Z,0.00
2018-04-30T01:40:30.454Z,0.00
2018-04-30T01:41:30.392Z,0.00
2018-04-30T01:42:30.278Z,0.00
2018-04-30T01:43:30.185Z,0.00
2018-04-30T01:44:30.194Z,0.00
2018-04-30T01:45:30.009Z,0.00
2018-04-30T01:46:29.953Z,0.00
2018-04-30T01:47:29.831Z,0.00
2018-04-30T01:48:29.743Z,0.00
2018-04-30T01:49:29.653Z,0.00
2018-04-30T01:50:29.565Z,0.00
2018-04-30T01:51:29.602Z,0.00
2018-04-30T01:52:29.387Z,0.00
2018-04-30T01:53:29.295Z,0.00
2018-04-30T01:54:29.212Z,0.00
2018-04-30T01:55:29.119Z,0.00
2018-04-30T01:56:29.063Z,0.00
2018-04-30T01:57:28.942Z,0.00
2018-04-30T01:58:28.951Z,0.00
2018-04-30T01:59:28.763Z,0.00
2018-04-30T02:00:28.676Z,0.00
2018-04-30T02:01:28.639Z,0.00
2018-04-30T02:02:28.498Z,0.00
2018-04-30T02:03:28.412Z,0.00
2018-04-30T02:04:28.319Z,0.00
2018-04-30T02:05:28.327Z,0.00
2018-04-30T02:06:28.173Z,0.00
2018-04-30T02:07:28.053Z,0.00
2018-04-30T02:08:27.961Z,0.00
2018-04-30T02:09:27.874Z,0.00
2018-04-30T02:10:27.786Z,0.00
2018-04-30T02:11:27.728Z,0.00
2018-04-30T02:12:27.704Z,0.00
2018-04-30T02:13:27.517Z,0.00
2018-04-30T02:14:27.434Z,0.00
2018-04-30T02:15:27.406Z,0.00
2018-04-30T02:16:27.284Z,0.00
2018-04-30T02:17:27.162Z,0.00
2018-04-30T02:18:27.074Z,0.00
2018-04-30T02:19:27.086Z,0.00
2018-04-30T02:20:26.894Z,0.00
2018-04-30T02:21:26.836Z,0.00
2018-04-30T02:22:26.716Z,0.00
2018-04-30T02:23:26.628Z,0.00
2018-04-30T02:24:26.536Z,0.00
2018-04-30T02:25:26.450Z,0.00
2018-04-30T02:26:26.392Z,0.00
2018-04-30T02:27:26.273Z,0.00
2018-04-30T02:28:26.188Z,0.00
2018-04-30T02:29:26.113Z,0.00
2018-04-30T02:30:26.005Z,0.00
2018-04-30T02:31:25.947Z,0.00
2018-04-30T02:32:25.829Z,0.00
2018-04-30T02:33:25.755Z,0.00
2018-04-30T02:34:25.651Z,0.00
2018-04-30T02:35:25.560Z,0.00
2018-04-30T02:36:25.508Z,0.00
2018-04-30T02:37:25.383Z,0.00
2018-04-30T02:38:25.289Z,0.00
2018-04-30T02:39:25.203Z,0.00
2018-04-30T02:40:25.117Z,0.00
2018-04-30T02:41:25.029Z,0.00
2018-04-30T02:42:24.969Z,0.00
2018-04-30T02:43:24.846Z,0.00
2018-04-30T02:44:24.758Z,0.00
2018-04-30T02:45:24.671Z,0.00
2018-04-30T02:46:24.580Z,0.00
2018-04-30T02:47:24.521Z,0.00
2018-04-30T02:48:24.403Z,0.00
2018-04-30T02:49:24.316Z,0.00
2018-04-30T02:50:24.239Z,0.00
2018-04-30T02:51:24.139Z,0.00
2018-04-30T02:52:24.076Z,0.00
2018-04-30T02:53:23.955Z,0.00
2018-04-30T02:54:23.868Z,0.00
2018-04-30T02:55:24.027Z,0.00
2018-04-30T02:56:23.692Z,0.00
2018-04-30T02:57:23.629Z,0.00
2018-04-30T02:58:23.511Z,0.00
2018-04-30T02:59:23.421Z,0.00
2018-04-30T03:00:23.333Z,0.00
2018-04-30T03:01:23.244Z,0.00
2018-04-30T03:02:23.286Z,0.00
2018-04-30T03:03:23.065Z,0.00
2018-04-30T03:04:22.974Z,0.00
2018-04-30T03:05:22.884Z,0.00
2018-04-30T03:06:22.796Z,0.00
2018-04-30T03:07:22.737Z,0.00
2018-04-30T03:08:22.618Z,0.00
2018-04-30T03:09:22.630Z,0.00
2018-04-30T03:10:22.439Z,0.00
2018-04-30T03:11:22.349Z,0.00
2018-04-30T03:12:22.291Z,0.00
2018-04-30T03:13:22.172Z,0.00
2018-04-30T03:14:22.082Z,0.00
2018-04-30T03:15:21.991Z,4.00
2018-04-30T03:16:21.905Z,4.00
2018-04-30T03:17:21.848Z,4.00
2018-04-30T03:18:21.725Z,4.00
2018-04-30T03:19:21.636Z,4.00
2018-04-30T03:20:21.544Z,8.00
2018-04-30T03:21:21.456Z,4.00
2018-04-30T03:22:21.406Z,8.00
2018-04-30T03:23:21.375Z,8.00
2018-04-30T03:24:21.188Z,8.00
2018-04-30T03:25:21.101Z,8.00
2018-04-30T03:26:21.013Z,12.00
2018-04-30T03:27:21.025Z,16.00
2018-04-30T03:28:20.828Z,20.00
2018-04-30T03:29:20.868Z,20.00
2018-04-30T03:30:20.656Z,24.00
2018-04-30T03:31:20.566Z,28.00
2018-04-30T03:32:20.506Z,32.00
2018-04-30T03:33:20.386Z,40.00
2018-04-30T03:34:20.299Z,44.00
2018-04-30T03:35:20.207Z,52.00
2018-04-30T03:36:20.119Z,60.00
2018-04-30T03:37:20.062Z,68.00
2018-04-30T03:38:19.941Z,76.00
2018-04-30T03:39:19.850Z,84.00
2018-04-30T03:40:19.761Z,96.00
2018-04-30T03:41:19.672Z,108.00
2018-04-30T03:42:19.613Z,116.00
2018-04-30T03:43:19.493Z,128.00
2018-04-30T03:44:19.410Z,144.00
2018-04-30T03:45:19.316Z,156.00
2018-04-30T03:46:19.225Z,172.00
2018-04-30T03:47:19.167Z,188.00
2018-04-30T03:48:19.046Z,204.00
2018-04-30T03:49:18.958Z,220.00
2018-04-30T03:50:18.870Z,240.00
2018-04-30T03:51:18.779Z,256.00
2018-04-30T03:52:18.719Z,280.00
2018-04-30T03:53:18.607Z,300.00
2018-04-30T03:54:18.511Z,320.00
2018-04-30T03:55:18.418Z,340.00
2018-04-30T03:56:18.331Z,364.00
2018-04-30T03:57:18.244Z,388.00
2018-04-30T03:58:18.184Z,408.00
2018-04-30T03:59:18.062Z,432.00
2018-04-30T04:00:17.974Z,460.00
2018-04-30T04:01:17.881Z,488.00
2018-04-30T04:02:17.824Z,520.00
2018-04-30T04:03:17.709Z,548.00
2018-04-30T04:04:17.616Z,588.00
2018-04-30T04:05:17.529Z,624.00
2018-04-30T04:06:17.438Z,664.00
2018-04-30T04:07:17.347Z,708.00
2018-04-30T04:08:17.286Z,752.00
2018-04-30T04:09:17.167Z,800.00
2018-04-30T04:10:17.081Z,848.00
2018-04-30T04:11:16.993Z,900.00
2018-04-30T04:12:16.898Z,952.00
2018-04-30T04:13:16.839Z,1004.00
2018-04-30T04:14:16.724Z,1056.00
2018-04-30T04:15:16.631Z,1100.00
2018-04-30T04:16:16.542Z,1148.00
2018-04-30T04:17:16.450Z,1192.00
2018-04-30T04:18:16.393Z,1232.00
2018-04-30T04:19:16.271Z,1268.00
2018-04-30T04:20:16.185Z,1312.00
2018-04-30T04:21:16.101Z,1380.00
2018-04-30T04:22:16.003Z,1468.00
2018-04-30T04:23:15.945Z,1548.00
2018-04-30T04:24:15.826Z,1600.00
2018-04-30T04:25:16.596Z,1636.00
2018-04-30T04:26:15.649Z,1672.00
2018-04-30T04:27:15.557Z,1696.00
2018-04-30T04:28:15.495Z,1760.00
2018-04-30T04:29:15.379Z,1900.00
2018-04-30T04:30:15.290Z,2036.00
2018-04-30T04:31:15.200Z,2156.00
2018-04-30T04:32:15.112Z,2244.00
2018-04-30T04:33:15.051Z,2320.00
2018-04-30T04:34:14.932Z,2392.00
2018-04-30T04:35:14.839Z,2460.00
2018-04-30T04:36:14.751Z,2540.00
2018-04-30T04:37:14.665Z,2612.00
2018-04-30T04:38:14.604Z,2736.00
2018-04-30T04:39:14.482Z,2868.00
2018-04-30T04:40:14.392Z,3036.00
2018-04-30T04:41:14.303Z,3236.00
2018-04-30T04:42:14.213Z,3356.00
2018-04-30T04:43:14.154Z,3388.00
2018-04-30T04:44:14.038Z,3612.00
2018-04-30T04:45:13.946Z,3788.00
2018-04-30T04:46:13.973Z,4264.00
2018-04-30T04:47:13.768Z,5160.00
2018-04-30T04:48:13.706Z,5344.00
2018-04-30T04:49:13.588Z,5176.00
2018-04-30T04:50:13.500Z,5352.00
2018-04-30T04:51:13.407Z,6660.00
2018-04-30T04:52:13.320Z,8020.00
2018-04-30T04:53:13.333Z,9020.00
2018-04-30T04:54:13.172Z,9060.00
2018-04-30T04:55:13.052Z,8648.00
2018-04-30T04:56:12.964Z,6800.00
2018-04-30T04:57:12.876Z,4992.00
2018-04-30T04:58:12.788Z,4968.00
2018-04-30T04:59:12.730Z,5120.00
2018-04-30T05:00:12.705Z,6768.00
2018-04-30T05:01:12.520Z,8360.00
2018-04-30T05:02:12.433Z,8328.00
2018-04-30T05:03:12.352Z,6784.00
2018-04-30T05:04:12.284Z,5828.00
2018-04-30T05:05:12.168Z,6200.00
2018-04-30T05:06:12.079Z,7064.00
2018-04-30T05:07:12.103Z,7268.00
2018-04-30T05:08:11.903Z,6324.00
2018-04-30T05:09:11.847Z,6240.00
2018-04-30T05:10:11.730Z,6596.00
2018-04-30T05:11:11.641Z,6432.00
2018-04-30T05:12:11.552Z,6348.00
2018-04-30T05:13:11.465Z,6452.00
2018-04-30T05:14:11.508Z,6652.00
2018-04-30T05:15:11.289Z,7052.00
2018-04-30T05:16:11.204Z,7228.00
2018-04-30T05:17:11.115Z,8852.00
2018-04-30T05:18:11.027Z,8948.00
2018-04-30T05:19:10.970Z,8384.00
2018-04-30T05:20:10.851Z,7304.00
2018-04-30T05:21:10.858Z,7104.00
2018-04-30T05:22:10.677Z,6680.00
2018-04-30T05:23:10.589Z,6684.00
2018-04-30T05:24:10.534Z,6704.00
2018-04-30T05:25:10.412Z,7356.00
2018-04-30T05:26:10.324Z,8036.00
2018-04-30T05:27:10.237Z,8152.00
2018-04-30T05:28:10.251Z,8300.00
2018-04-30T05:29:10.094Z,7980.00
2018-04-30T05:30:09.976Z,8432.00
2018-04-30T05:31:09.888Z,8496.00
2018-04-30T05:32:09.802Z,8916.00
2018-04-30T05:33:09.715Z,9336.00
2018-04-30T05:34:09.659Z,9124.00
2018-04-30T05:35:09.632Z,9412.00
2018-04-30T05:36:09.452Z,9580.00
2018-04-30T05:37:09.362Z,9584.00
2018-04-30T05:38:09.278Z,10036.00
2018-04-30T05:39:09.220Z,9960.00
2018-04-30T05:40:09.614Z,9724.00
2018-04-30T05:41:09.014Z,9796.00
2018-04-30T05:42:09.021Z,10576.00
2018-04-30T05:43:08.842Z,11004.00
2018-04-30T05:44:08.783Z,10364.00
2018-04-30T05:45:08.667Z,8692.00
2018-04-30T05:46:08.577Z,8712.00
2018-04-30T05:47:08.491Z,8840.00
2018-04-30T05:48:08.498Z,8988.00
2018-04-30T05:49:08.444Z,9004.00
2018-04-30T05:50:08.228Z,9116.00
2018-04-30T05:51:08.143Z,9220.00
2018-04-30T05:52:08.060Z,9852.00
2018-04-30T05:53:07.966Z,9392.00
2018-04-30T05:54:07.909Z,9324.00
2018-04-30T05:55:07.969Z,10016.00
2018-04-30T05:56:07.703Z,10096.00
2018-04-30T05:57:07.616Z,10236.00
2018-04-30T05:58:07.529Z,10108.00
2018-04-30T05:59:07.472Z,10964.00
2018-04-30T06:00:07.354Z,11296.00
2018-04-30T06:01:07.268Z,11108.00
2018-04-30T06:02:07.177Z,10124.00
2018-04-30T06:03:07.093Z,9856.00
2018-04-30T06:04:07.015Z,11548.00
2018-04-30T06:05:06.947Z,9960.00
2018-04-30T06:06:06.832Z,8864.00
2018-04-30T06:07:06.742Z,9640.00
2018-04-30T06:08:06.656Z,9644.00
2018-04-30T06:09:06.568Z,9632.00
2018-04-30T06:10:06.511Z,10504.00
2018-04-30T06:11:06.392Z,10456.00
2018-04-30T06:12:06.410Z,9548.00
2018-04-30T06:13:06.220Z,9268.00
2018-04-30T06:14:06.129Z,10544.00
2018-04-30T06:15:06.153Z,11196.00
2018-04-30T06:16:05.955Z,12284.00
2018-04-30T06:17:05.866Z,11712.00
2018-04-30T06:18:05.781Z,11056.00
2018-04-30T06:19:05.686Z,10644.00
2018-04-30T06:20:05.634Z,11872.00
2018-04-30T06:21:05.512Z,13148.00
2018-04-30T06:22:05.428Z,11592.00
2018-04-30T06:23:05.341Z,14448.00
2018-04-30T06:24:05.248Z,12240.00
2018-04-30T06:25:05.192Z,12016.00
2018-04-30T06:26:05.074Z,11448.00
2018-04-30T06:27:04.986Z,11764.00
2018-04-30T06:28:04.896Z,9468.00
2018-04-30T06:29:04.807Z,9976.00
2018-04-30T06:30:04.750Z,11148.00
2018-04-30T06:31:04.631Z,12152.00
2018-04-30T06:32:04.546Z,13340.00
2018-04-30T06:33:04.451Z,10616.00
2018-04-30T06:34:04.394Z,10444.00
2018-04-30T06:35:04.314Z,9200.00
2018-04-30T06:36:04.190Z,10224.00
2018-04-30T06:37:04.102Z,10564.00
2018-04-30T06:38:04.015Z,9876.00
2018-04-30T06:39:03.925Z,11076.00
2018-04-30T06:40:03.874Z,10576.00
2018-04-30T06:41:03.750Z,10936.00
2018-04-30T06:42:03.662Z,11932.00
2018-04-30T06:43:03.574Z,12776.00
2018-04-30T06:44:03.488Z,30304.00
2018-04-30T06:45:03.431Z,10468.00
2018-04-30T06:46:03.308Z,7856.00
2018-04-30T06:47:03.220Z,8108.00
2018-04-30T06:48:03.134Z,9272.00
2018-04-30T06:49:03.048Z,10380.00
2018-04-30T06:50:02.988Z,9656.00
2018-04-30T06:51:02.868Z,8056.00
2018-04-30T06:52:02.780Z,6012.00
2018-04-30T06:53:02.692Z,5352.00
2018-04-30T06:54:02.603Z,6192.00
2018-04-30T06:55:02.548Z,7416.00
2018-04-30T06:56:02.426Z,7476.00
2018-04-30T06:57:02.340Z,7136.00
2018-04-30T06:58:02.252Z,6744.00
2018-04-30T06:59:02.163Z,5600.00
2018-04-30T07:00:02.103Z,3936.00
2018-04-30T07:01:01.990Z,2692.00
2018-04-30T07:02:01.899Z,2404.00
2018-04-30T07:03:01.812Z,2400.00
2018-04-30T07:04:01.723Z,2268.00
2018-04-30T07:05:01.664Z,2336.00
2018-04-30T07:06:01.546Z,2620.00
2018-04-30T07:07:01.453Z,2840.00
2018-04-30T07:08:01.364Z,3484.00
2018-04-30T07:09:01.276Z,4296.00
2018-04-30T07:10:01.220Z,5016.00
2018-04-30T07:11:01.103Z,5380.00
2018-04-30T07:12:01.105Z,4972.00
2018-04-30T07:13:00.920Z,4320.00
2018-04-30T07:14:00.834Z,4256.00
2018-04-30T07:15:00.776Z,4724.00
2018-04-30T07:16:00.655Z,5864.00
2018-04-30T07:17:00.568Z,7524.00
2018-04-30T07:18:00.479Z,8040.00
2018-04-30T07:19:00.387Z,8052.00
2018-04-30T07:20:00.321Z,7648.00
2018-04-30T07:21:00.244Z,7872.00
2018-04-30T07:22:00.122Z,8340.00
2018-04-30T07:23:00.033Z,8016.00
2018-04-30T07:23:59.950Z,9360.00
2018-04-30T07:24:59.855Z,10760.00
2018-04-30T07:25:59.795Z,11224.00
2018-04-30T07:26:59.677Z,12424.00
2018-04-30T07:27:59.585Z,12024.00
2018-04-30T07:28:59.499Z,12396.00
2018-04-30T07:29:59.412Z,14232.00
2018-04-30T07:30:59.351Z,13212.00
2018-04-30T07:31:59.232Z,12252.00
2018-04-30T07:32:59.244Z,14300.00
2018-04-30T07:33:59.053Z,15784.00
2018-04-30T07:34:58.960Z,16840.00
2018-04-30T07:35:58.902Z,17184.00
2018-04-30T07:36:58.786Z,15392.00
2018-04-30T07:37:58.695Z,14796.00
2018-04-30T07:38:58.645Z,14288.00
2018-04-30T07:39:58.615Z,14600.00
2018-04-30T07:40:58.460Z,14116.00
2018-04-30T07:41:58.338Z,14564.00
2018-04-30T07:42:58.250Z,15736.00
2018-04-30T07:43:58.162Z,16040.00
2018-04-30T07:44:58.077Z,15360.00
2018-04-30T07:45:58.016Z,15448.00
2018-04-30T07:46:57.989Z,14940.00
2018-04-30T07:47:57.807Z,14320.00
2018-04-30T07:48:57.718Z,13744.00
2018-04-30T07:49:57.629Z,13672.00
2018-04-30T07:50:57.569Z,13776.00
2018-04-30T07:51:57.451Z,13076.00
2018-04-30T07:52:57.370Z,12372.00
2018-04-30T07:53:57.367Z,12400.00
2018-04-30T07:54:57.181Z,12284.00
2018-04-30T07:55:57.127Z,12772.00
2018-04-30T07:56:57.007Z,13888.00
2018-04-30T07:57:56.916Z,15860.00
2018-04-30T07:58:56.826Z,18912.00
2018-04-30T07:59:56.735Z,23104.00
2018-04-30T08:00:56.768Z,26944.00
2018-04-30T08:01:56.559Z,28416.00
2018-04-30T08:02:56.476Z,24736.00
2018-04-30T08:03:56.380Z,22880.00
2018-04-30T08:04:56.293Z,22848.00
2018-04-30T08:05:56.239Z,26688.00
2018-04-30T08:06:56.114Z,37568.00
2018-04-30T08:07:56.126Z,29152.00
2018-04-30T08:08:55.938Z,23008.00
2018-04-30T08:09:55.851Z,21152.00
2018-04-30T08:10:55.795Z,23296.00
2018-04-30T08:11:55.673Z,22560.00
2018-04-30T08:12:55.584Z,20576.00
2018-04-30T08:13:55.500Z,18912.00
2018-04-30T08:14:55.520Z,16896.00
2018-04-30T08:15:55.353Z,16616.00
2018-04-30T08:16:55.233Z,17984.00
2018-04-30T08:17:55.146Z,16992.00
2018-04-30T08:18:55.056Z,15400.00
2018-04-30T08:19:54.974Z,15360.00
2018-04-30T08:20:54.909Z,16072.00
2018-04-30T08:21:54.794Z,17088.00
2018-04-30T08:22:54.704Z,16992.00
2018-04-30T08:23:54.621Z,16096.00
2018-04-30T08:24:54.527Z,15212.00
2018-04-30T08:25:54.474Z,14152.00
2018-04-30T08:26:54.392Z,13476.00
2018-04-30T08:27:54.262Z,12976.00
2018-04-30T08:28:54.176Z,12180.00
2018-04-30T08:29:54.099Z,11528.00
2018-04-30T08:30:54.031Z,11888.00
2018-04-30T08:31:53.911Z,13656.00
2018-04-30T08:32:53.824Z,16640.00
2018-04-30T08:33:53.734Z,19136.00
2018-04-30T08:34:53.642Z,20736.00
2018-04-30T08:35:53.558Z,22784.00
2018-04-30T08:36:58.164Z,24896.00
2018-04-30T08:37:53.378Z,24384.00
2018-04-30T08:38:53.574Z,34944.00
2018-04-30T08:39:53.203Z,42016.00
2018-04-30T08:40:53.117Z,69056.00
2018-04-30T08:41:53.080Z,76448.00
2018-04-30T08:42:52.939Z,72448.00
2018-04-30T08:43:52.858Z,65408.00
2018-04-30T08:44:52.765Z,34336.00
2018-04-30T08:45:52.678Z,25920.00
2018-04-30T08:46:52.618Z,25856.00
2018-04-30T08:47:52.498Z,29280.00
2018-04-30T08:48:52.415Z,67552.00
2018-04-30T08:49:52.331Z,62496.00
2018-04-30T08:50:52.339Z,50944.00
2018-04-30T08:51:52.186Z,44768.00
2018-04-30T08:52:52.067Z,22112.00
2018-04-30T08:53:51.979Z,20992.00
2018-04-30T08:54:51.891Z,17344.00
2018-04-30T08:55:51.807Z,17120.00
2018-04-30T08:56:51.750Z,17088.00
2018-04-30T08:57:51.635Z,15140.00
2018-04-30T08:58:51.548Z,13712.00
2018-04-30T08:59:51.463Z,13572.00
2018-04-30T09:00:51.374Z,14176.00
2018-04-30T09:01:51.326Z,15200.00
2018-04-30T09:02:51.212Z,15740.00
2018-04-30T09:03:51.113Z,15872.00
2018-04-30T09:04:51.023Z,15276.00
2018-04-30T09:05:50.939Z,14612.00
2018-04-30T09:06:50.880Z,13076.00
2018-04-30T09:07:50.768Z,11548.00
2018-04-30T09:08:50.675Z,9756.00
2018-04-30T09:09:50.591Z,8240.00
2018-04-30T09:10:50.499Z,6964.00
2018-04-30T09:11:50.443Z,6104.00
2018-04-30T09:12:50.325Z,5644.00
2018-04-30T09:13:50.237Z,5436.00
2018-04-30T09:14:50.148Z,5396.00
2018-04-30T09:15:50.062Z,5448.00
2018-04-30T09:16:50.009Z,5664.00
2018-04-30T09:17:49.889Z,5948.00
2018-04-30T09:18:49.796Z,6280.00
2018-04-30T09:19:49.709Z,6688.00
2018-04-30T09:20:49.625Z,7156.00
2018-04-30T09:21:49.565Z,7648.00
2018-04-30T09:22:49.445Z,7896.00
2018-04-30T09:23:49.397Z,8224.00
2018-04-30T09:24:49.270Z,9184.00
2018-04-30T09:25:49.184Z,10588.00
2018-04-30T09:26:49.123Z,11704.00
2018-04-30T09:27:49.003Z,12228.00
2018-04-30T09:28:48.912Z,12820.00
2018-04-30T09:29:48.827Z,14024.00
2018-04-30T09:30:48.738Z,16012.00
2018-04-30T09:31:48.681Z,19648.00
2018-04-30T09:32:48.558Z,21216.00
2018-04-30T09:33:48.470Z,19904.00
2018-04-30T09:34:48.383Z,19904.00
2018-04-30T09:35:48.290Z,21152.00
2018-04-30T09:36:48.237Z,24672.00
2018-04-30T09:37:48.116Z,27520.00
2018-04-30T09:38:48.032Z,27776.00
2018-04-30T09:39:47.937Z,26304.00
2018-04-30T09:40:47.848Z,26080.00
2018-04-30T09:41:47.805Z,29280.00
2018-04-30T09:42:47.673Z,32576.00
2018-04-30T09:43:47.583Z,62496.00
2018-04-30T09:44:47.495Z,113856.00
2018-04-30T09:45:47.406Z,114368.00
2018-04-30T09:46:47.319Z,39584.00
2018-04-30T09:47:47.264Z,31104.00
2018-04-30T09:48:47.142Z,25088.00
2018-04-30T09:49:47.055Z,23456.00
2018-04-30T09:50:46.967Z,20800.00
2018-04-30T09:51:46.878Z,21120.00
2018-04-30T09:52:46.824Z,22912.00
2018-04-30T09:53:46.701Z,26240.00
2018-04-30T09:54:46.615Z,31648.00
2018-04-30T09:55:46.543Z,32896.00
2018-04-30T09:56:46.439Z,47040.00
2018-04-30T09:57:46.470Z,26464.00
2018-04-30T09:58:46.268Z,20416.00
2018-04-30T09:59:46.178Z,19520.00
2018-04-30T10:00:46.095Z,18560.00
2018-04-30T10:01:46.005Z,16896.00
2018-04-30T10:02:45.945Z,15768.00
2018-04-30T10:03:45.829Z,15996.00
2018-04-30T10:04:45.743Z,16928.00
2018-04-30T10:05:45.656Z,18688.00
2018-04-30T10:06:45.566Z,19232.00
2018-04-30T10:07:45.513Z,17760.00
2018-04-30T10:08:45.389Z,17216.00
2018-04-30T10:09:45.304Z,19200.00
2018-04-30T10:10:45.219Z,20032.00
2018-04-30T10:11:45.131Z,22720.00
2018-04-30T10:12:45.071Z,21568.00
2018-04-30T10:13:45.050Z,23360.00
2018-04-30T10:14:44.867Z,23712.00
2018-04-30T10:15:44.779Z,23200.00
2018-04-30T10:16:44.691Z,21632.00
2018-04-30T10:17:44.715Z,19968.00
2018-04-30T10:18:44.519Z,19360.00
2018-04-30T10:19:44.433Z,18336.00
2018-04-30T10:20:44.439Z,17056.00
2018-04-30T10:21:44.256Z,16048.00
2018-04-30T10:22:44.201Z,15028.00
2018-04-30T10:23:44.179Z,14580.00
2018-04-30T10:24:43.994Z,14076.00
2018-04-30T10:25:43.935Z,13652.00
2018-04-30T10:26:43.821Z,13528.00
2018-04-30T10:27:43.876Z,14064.00
2018-04-30T10:28:43.643Z,15056.00
2018-04-30T10:29:43.556Z,15860.00
2018-04-30T10:30:43.469Z,17408.00
2018-04-30T10:31:43.457Z,18368.00
2018-04-30T10:32:43.329Z,18048.00
2018-04-30T10:33:43.205Z,17248.00
2018-04-30T10:34:43.217Z,16704.00
2018-04-30T10:35:43.031Z,17696.00
2018-04-30T10:36:42.940Z,19104.00
2018-04-30T10:37:42.890Z,20416.00
2018-04-30T10:38:42.772Z,21472.00
2018-04-30T10:39:42.677Z,22304.00
2018-04-30T10:40:42.592Z,23424.00
2018-04-30T10:41:42.598Z,24032.00
2018-04-30T10:42:42.445Z,24064.00
2018-04-30T10:43:42.326Z,24288.00
2018-04-30T10:44:42.244Z,26144.00
2018-04-30T10:45:42.159Z,30336.00
2018-04-30T10:46:42.062Z,36032.00
2018-04-30T10:47:42.006Z,42144.00
2018-04-30T10:48:41.983Z,60928.00
2018-04-30T10:49:41.799Z,43680.00
2018-04-30T10:50:41.710Z,42752.00
2018-04-30T10:51:41.712Z,54080.00
2018-04-30T10:52:41.575Z,42720.00
2018-04-30T10:53:41.451Z,40672.00
2018-04-30T10:54:41.362Z,41728.00
2018-04-30T10:55:41.371Z,58432.00
2018-04-30T10:56:41.190Z,55872.00
2018-04-30T10:57:41.105Z,106720.00
2018-04-30T10:58:41.050Z,79648.00
2018-04-30T10:59:40.929Z,76416.00
2018-04-30T11:00:40.844Z,52224.00
2018-04-30T11:01:40.759Z,44768.00
2018-04-30T11:02:40.851Z,24672.00
2018-04-30T11:03:40.619Z,38048.00
2018-04-30T11:04:40.501Z,25728.00
2018-04-30T11:05:40.417Z,26112.00
2018-04-30T11:06:40.333Z,28480.00
2018-04-30T11:07:40.245Z,30592.00
2018-04-30T11:08:40.188Z,31936.00
2018-04-30T11:09:40.169Z,28928.00
2018-04-30T11:10:39.985Z,26464.00
2018-04-30T11:11:39.899Z,25568.00
2018-04-30T11:12:39.817Z,26144.00
2018-04-30T11:13:39.763Z,34208.00
2018-04-30T11:14:39.643Z,44416.00
2018-04-30T11:15:39.557Z,31904.00
2018-04-30T11:16:39.566Z,33280.00
2018-04-30T11:17:39.386Z,73728.00
2018-04-30T11:18:39.333Z,62272.00
2018-04-30T11:19:39.214Z,67552.00
2018-04-30T11:20:39.128Z,41856.00
2018-04-30T11:21:39.043Z,90176.00
2018-04-30T11:22:39.022Z,98112.00
2018-04-30T11:23:39.007Z,88704.00
2018-04-30T11:24:38.784Z,85504.00
2018-04-30T11:25:38.700Z,85728.00
2018-04-30T11:26:38.615Z,79616.00
2018-04-30T11:27:38.534Z,78592.00
2018-04-30T11:28:38.475Z,75264.00
2018-04-30T11:29:38.484Z,71296.00
2018-04-30T11:30:38.275Z,72288.00
2018-04-30T11:31:38.192Z,70944.00
2018-04-30T11:32:38.106Z,71808.00
2018-04-30T11:33:38.061Z,78816.00
2018-04-30T11:34:37.940Z,72352.00
2018-04-30T11:35:37.859Z,75744.00
2018-04-30T11:36:37.773Z,77376.00
2018-04-30T11:37:37.785Z,75392.00
2018-04-30T11:38:37.636Z,75392.00
2018-04-30T11:39:37.524Z,79680.00
2018-04-30T11:40:37.442Z,85088.00
2018-04-30T11:41:37.360Z,92288.00
2018-04-30T11:42:37.276Z,92992.00
2018-04-30T11:43:37.224Z,88512.00
2018-04-30T11:44:37.111Z,93536.00
2018-04-30T11:45:37.030Z,89984.00
2018-04-30T11:46:36.947Z,89312.00
2018-04-30T11:47:36.867Z,91264.00
2018-04-30T11:48:36.815Z,87040.00
2018-04-30T11:49:36.704Z,79872.00
2018-04-30T11:50:36.623Z,77312.00
2018-04-30T11:51:36.536Z,67008.00
2018-04-30T11:52:36.456Z,65088.00
2018-04-30T11:53:36.405Z,69280.00
2018-04-30T11:54:36.292Z,66464.00
2018-04-30T11:55:36.209Z,66208.00
2018-04-30T11:56:36.127Z,71200.00
2018-04-30T11:57:36.048Z,70400.00
2018-04-30T11:58:36.015Z,70880.00
2018-04-30T11:59:35.884Z,69440.00
2018-04-30T12:00:35.800Z,71744.00
2018-04-30T12:01:35.723Z,60768.00
2018-04-30T12:02:35.637Z,54432.00
2018-04-30T12:03:35.587Z,48384.00
2018-04-30T12:04:35.474Z,48864.00
2018-04-30T12:05:35.394Z,48192.00
2018-04-30T12:06:35.309Z,48192.00
2018-04-30T12:07:35.246Z,49152.00
2018-04-30T12:08:35.178Z,56608.00
2018-04-30T12:09:35.067Z,65120.00
2018-04-30T12:10:34.986Z,74656.00
2018-04-30T12:11:34.901Z,79296.00
2018-04-30T12:12:34.823Z,92896.00
2018-04-30T12:13:34.740Z,99680.00
2018-04-30T12:14:34.691Z,104672.00
2018-04-30T12:15:34.574Z,103456.00